sensor_id;sensor_type;location;lat;lon;timestamp;pressure;altitude;pressure_sealevel;temperature;humidity
43824;BME280;29470;53.550;9.926;2023-02-19T00:02:25;101079.22;;;7.46;91.33
43824;BME280;29470;53.550;9.926;2023-02-19T00:07:29;101083.44;;;7.96;89.43
43824;BME280;29470;53.550;9.926;2023-02-19T00:12:32;101080.50;;;8.22;90.71
43824;BME280;29470;53.550;9.926;2023-02-19T00:17:35;101074.81;;;8.06;90.85
43824;BME280;29470;53.550;9.926;2023-02-19T00:22:39;101075.31;;;8.02;89.90
43824;BME280;29470;53.550;9.926;2023-02-19T00:27:42;101083.19;;;8.14;92.69
43824;BME280;29470;53.550;9.926;2023-02-19T00:32:49;101076.25;;;8.13;92.49
43824;BME280;29470;53.550;9.926;2023-02-19T00:37:53;101067.75;;;8.34;89.29
43824;BME280;29470;53.550;9.926;2023-02-19T00:42:56;101080.38;;;8.21;93.56
43824;BME280;29470;53.550;9.926;2023-02-19T00:47:59;101089.31;;;7.64;93.85
43824;BME280;29470;53.550;9.926;2023-02-19T00:53:03;101087.41;;;7.72;94.79
43824;BME280;29470;53.550;9.926;2023-02-19T00:58:06;101092.44;;;7.80;96.08
43824;BME280;29470;53.550;9.926;2023-02-19T01:03:09;101098.09;;;7.07;98.84
43824;BME280;29470;53.550;9.926;2023-02-19T01:08:13;101102.00;;;7.42;98.88
43824;BME280;29470;53.550;9.926;2023-02-19T01:13:16;101096.72;;;7.90;95.51
43824;BME280;29470;53.550;9.926;2023-02-19T01:18:19;101100.13;;;7.70;95.87
43824;BME280;29470;53.550;9.926;2023-02-19T01:23:24;101096.84;;;7.92;97.09
43824;BME280;29470;53.550;9.926;2023-02-19T01:28:27;101089.59;;;7.77;95.58
43824;BME280;29470;53.550;9.926;2023-02-19T01:33:30;101097.66;;;7.51;95.83
43824;BME280;29470;53.550;9.926;2023-02-19T01:38:34;101099.72;;;7.26;99.65
43824;BME280;29470;53.550;9.926;2023-02-19T01:43:54;101096.66;;;7.30;99.78
43824;BME280;29470;53.550;9.926;2023-02-19T01:48:59;101086.00;;;7.86;95.52
43824;BME280;29470;53.550;9.926;2023-02-19T01:54:08;101083.84;;;7.50;95.29
43824;BME280;29470;53.550;9.926;2023-02-19T01:59:12;101087.06;;;7.98;93.54
43824;BME280;29470;53.550;9.926;2023-02-19T02:04:16;101086.84;;;7.55;92.87
43824;BME280;29470;53.550;9.926;2023-02-19T02:09:25;101093.91;;;7.58;90.96
43824;BME280;29470;53.550;9.926;2023-02-19T02:14:46;101089.69;;;6.99;93.29
43824;BME280;29470;53.550;9.926;2023-02-19T02:20:06;101078.91;;;7.73;86.66
43824;BME280;29470;53.550;9.926;2023-02-19T02:25:35;101081.25;;;7.80;86.62
43824;BME280;29470;53.550;9.926;2023-02-19T02:30:46;101091.03;;;7.74;86.28
43824;BME280;29470;53.550;9.926;2023-02-19T02:35:53;101091.50;;;7.59;87.64
43824;BME280;29470;53.550;9.926;2023-02-19T02:40:57;101090.22;;;7.35;89.80
43824;BME280;29470;53.550;9.926;2023-02-19T02:46:02;101098.34;;;7.29;87.49
43824;BME280;29470;53.550;9.926;2023-02-19T02:51:13;101101.28;;;6.75;88.56
43824;BME280;29470;53.550;9.926;2023-02-19T02:56:24;101104.75;;;6.95;88.95
43824;BME280;29470;53.550;9.926;2023-02-19T03:01:31;101093.75;;;7.16;87.67
43824;BME280;29470;53.550;9.926;2023-02-19T03:06:53;101099.88;;;7.08;89.84
43824;BME280;29470;53.550;9.926;2023-02-19T03:11:59;101103.25;;;7.36;87.47
43824;BME280;29470;53.550;9.926;2023-02-19T03:17:25;101103.06;;;7.25;87.00
43824;BME280;29470;53.550;9.926;2023-02-19T03:22:47;101110.28;;;6.99;87.58
43824;BME280;29470;53.550;9.926;2023-02-19T03:27:53;101119.53;;;6.97;88.95
43824;BME280;29470;53.550;9.926;2023-02-19T03:33:03;101124.47;;;6.66;90.31
43824;BME280;29470;53.550;9.926;2023-02-19T03:38:15;101136.34;;;6.93;89.82
43824;BME280;29470;53.550;9.926;2023-02-19T03:43:23;101131.41;;;7.05;89.75
43824;BME280;29470;53.550;9.926;2023-02-19T03:48:32;101140.94;;;7.06;89.94
43824;BME280;29470;53.550;9.926;2023-02-19T03:53:45;101134.41;;;6.72;92.39
43824;BME280;29470;53.550;9.926;2023-02-19T03:58:53;101129.25;;;6.91;93.08
43824;BME280;29470;53.550;9.926;2023-02-19T04:04:03;101136.81;;;6.70;93.01
43824;BME280;29470;53.550;9.926;2023-02-19T04:09:13;101154.25;;;6.64;93.69
43824;BME280;29470;53.550;9.926;2023-02-19T04:14:24;101153.78;;;6.21;94.67
43824;BME280;29470;53.550;9.926;2023-02-19T04:19:32;101155.31;;;6.66;92.69
43824;BME280;29470;53.550;9.926;2023-02-19T04:24:38;101167.56;;;6.69;93.80
43824;BME280;29470;53.550;9.926;2023-02-19T04:29:42;101191.72;;;6.90;90.96
43824;BME280;29470;53.550;9.926;2023-02-19T04:34:46;101192.56;;;6.99;89.26
43824;BME280;29470;53.550;9.926;2023-02-19T04:39:49;101209.81;;;6.81;91.17
43824;BME280;29470;53.550;9.926;2023-02-19T04:44:52;101199.16;;;6.68;91.86
43824;BME280;29470;53.550;9.926;2023-02-19T04:49:56;101211.25;;;6.41;93.87
43824;BME280;29470;53.550;9.926;2023-02-19T04:54:59;101215.53;;;6.87;92.05
43824;BME280;29470;53.550;9.926;2023-02-19T05:00:02;101230.88;;;6.40;93.68
43824;BME280;29470;53.550;9.926;2023-02-19T05:05:07;101222.13;;;6.66;93.13
43824;BME280;29470;53.550;9.926;2023-02-19T05:10:09;101234.22;;;6.67;93.14
43824;BME280;29470;53.550;9.926;2023-02-19T05:15:12;101234.78;;;6.54;94.62
43824;BME280;29470;53.550;9.926;2023-02-19T05:20:17;101226.84;;;6.33;95.08
43824;BME280;29470;53.550;9.926;2023-02-19T05:25:20;101243.03;;;6.24;95.63
43824;BME280;29470;53.550;9.926;2023-02-19T05:30:23;101253.13;;;6.03;97.38
43824;BME280;29470;53.550;9.926;2023-02-19T05:35:27;101256.56;;;6.03;97.65
43824;BME280;29470;53.550;9.926;2023-02-19T05:40:30;101264.28;;;5.86;98.96
43824;BME280;29470;53.550;9.926;2023-02-19T05:45:34;101267.63;;;5.67;100.00
43824;BME280;29470;53.550;9.926;2023-02-19T05:50:39;101272.75;;;5.67;99.78
43824;BME280;29470;53.550;9.926;2023-02-19T05:55:45;101284.66;;;5.93;100.00
43824;BME280;29470;53.550;9.926;2023-02-19T06:00:48;101285.28;;;6.08;97.07
43824;BME280;29470;53.550;9.926;2023-02-19T06:05:53;101300.69;;;5.82;98.90
43824;BME280;29470;53.550;9.926;2023-02-19T06:10:56;101314.13;;;5.88;96.40
43824;BME280;29470;53.550;9.926;2023-02-19T06:16:02;101327.72;;;5.78;99.09
43824;BME280;29470;53.550;9.926;2023-02-19T06:21:08;101338.88;;;5.79;98.18
43824;BME280;29470;53.550;9.926;2023-02-19T06:26:14;101350.53;;;5.57;98.70
43824;BME280;29470;53.550;9.926;2023-02-19T06:31:19;101371.47;;;5.36;100.00
43824;BME280;29470;53.550;9.926;2023-02-19T06:36:24;101367.56;;;5.48;100.00
43824;BME280;29470;53.550;9.926;2023-02-19T06:41:27;101386.13;;;5.37;100.00
43824;BME280;29470;53.550;9.926;2023-02-19T06:46:30;101389.44;;;5.36;100.00
43824;BME280;29470;53.550;9.926;2023-02-19T06:51:34;101412.34;;;5.25;100.00
43824;BME280;29470;53.550;9.926;2023-02-19T06:56:38;101413.63;;;5.64;100.00
43824;BME280;29470;53.550;9.926;2023-02-19T07:01:42;101427.59;;;5.33;100.00
43824;BME280;29470;53.550;9.926;2023-02-19T07:06:46;101435.44;;;4.92;100.00
43824;BME280;29470;53.550;9.926;2023-02-19T07:11:50;101426.91;;;5.78;100.00
43824;BME280;29470;53.550;9.926;2023-02-19T07:16:53;101445.63;;;5.59;100.00
43824;BME280;29470;53.550;9.926;2023-02-19T07:21:57;101461.44;;;6.06;100.00
43824;BME280;29470;53.550;9.926;2023-02-19T07:27:00;101465.28;;;6.73;96.19
43824;BME280;29470;53.550;9.926;2023-02-19T07:32:03;101474.06;;;6.75;94.26
43824;BME280;29470;53.550;9.926;2023-02-19T07:37:07;101487.66;;;6.74;92.36
43824;BME280;29470;53.550;9.926;2023-02-19T07:42:10;101495.19;;;6.90;91.76
43824;BME280;29470;53.550;9.926;2023-02-19T07:47:13;101501.00;;;6.52;92.79
43824;BME280;29470;53.550;9.926;2023-02-19T07:52:17;101512.72;;;6.94;89.90
43824;BME280;29470;53.550;9.926;2023-02-19T07:57:20;101511.88;;;6.58;89.88
43824;BME280;29470;53.550;9.926;2023-02-19T08:02:22;101528.81;;;6.47;91.06
43824;BME280;29470;53.550;9.926;2023-02-19T08:07:44;101541.50;;;6.37;91.43
43824;BME280;29470;53.550;9.926;2023-02-19T08:12:54;101543.94;;;6.36;92.93
43824;BME280;29470;53.550;9.926;2023-02-19T08:18:14;101533.94;;;6.74;91.87
43824;BME280;29470;53.550;9.926;2023-02-19T08:23:19;101531.84;;;6.70;90.27
43824;BME280;29470;53.550;9.926;2023-02-19T08:28:22;101533.50;;;6.78;89.62
43824;BME280;29470;53.550;9.926;2023-02-19T08:33:25;101544.13;;;7.18;88.53
43824;BME280;29470;53.550;9.926;2023-02-19T08:38:29;101549.91;;;7.06;87.56
43824;BME280;29470;53.550;9.926;2023-02-19T08:43:32;101558.25;;;7.77;85.19
43824;BME280;29470;53.550;9.926;2023-02-19T08:48:36;101564.03;;;7.47;85.61
43824;BME280;29470;53.550;9.926;2023-02-19T08:53:40;101579.97;;;7.25;83.27
43824;BME280;29470;53.550;9.926;2023-02-19T08:58:43;101593.41;;;7.40;85.13
43824;BME280;29470;53.550;9.926;2023-02-19T09:03:46;101597.06;;;7.70;81.16
43824;BME280;29470;53.550;9.926;2023-02-19T09:08:50;101612.81;;;7.28;82.59
43824;BME280;29470;53.550;9.926;2023-02-19T09:13:54;101625.44;;;8.26;79.02
43824;BME280;29470;53.550;9.926;2023-02-19T09:18:57;101630.78;;;8.19;79.20
43824;BME280;29470;53.550;9.926;2023-02-19T09:24:02;101639.78;;;8.05;78.29
43824;BME280;29470;53.550;9.926;2023-02-19T09:29:05;101630.22;;;8.13;79.69
43824;BME280;29470;53.550;9.926;2023-02-19T09:34:07;101653.94;;;7.54;82.55
43824;BME280;29470;53.550;9.926;2023-02-19T09:39:13;101649.72;;;8.19;80.54
43824;BME280;29470;53.550;9.926;2023-02-19T09:44:22;101658.19;;;8.55;77.36
43824;BME280;29470;53.550;9.926;2023-02-19T09:49:28;101652.69;;;8.99;76.39
43824;BME280;29470;53.550;9.926;2023-02-19T09:54:35;101662.72;;;8.96;73.93
43824;BME280;29470;53.550;9.926;2023-02-19T09:59:40;101684.06;;;9.23;74.11
43824;BME280;29470;53.550;9.926;2023-02-19T10:04:46;101701.13;;;9.12;72.47
43824;BME280;29470;53.550;9.926;2023-02-19T10:09:54;101715.03;;;9.04;71.80
43824;BME280;29470;53.550;9.926;2023-02-19T10:15:06;101718.69;;;8.59;75.40
43824;BME280;29470;53.550;9.926;2023-02-19T10:20:13;101726.84;;;8.26;74.12
43824;BME280;29470;53.550;9.926;2023-02-19T10:25:18;101726.00;;;8.54;71.45
43824;BME280;29470;53.550;9.926;2023-02-19T10:30:23;101737.34;;;9.03;64.70
43824;BME280;29470;53.550;9.926;2023-02-19T10:35:26;101737.34;;;9.22;64.12
43824;BME280;29470;53.550;9.926;2023-02-19T10:40:31;101744.59;;;9.26;62.92
43824;BME280;29470;53.550;9.926;2023-02-19T10:45:44;101747.19;;;9.07;63.59
43824;BME280;29470;53.550;9.926;2023-02-19T10:50:50;101739.78;;;9.99;60.50
43824;BME280;29470;53.550;9.926;2023-02-19T10:56:07;101755.94;;;9.67;56.94
43824;BME280;29470;53.550;9.926;2023-02-19T11:01:14;101766.94;;;10.04;56.42
43824;BME280;29470;53.550;9.926;2023-02-19T11:06:18;101774.88;;;10.26;54.19
43824;BME280;29470;53.550;9.926;2023-02-19T11:11:35;101782.84;;;10.09;54.56
43824;BME280;29470;53.550;9.926;2023-02-19T11:16:41;101770.34;;;10.13;54.00
43824;BME280;29470;53.550;9.926;2023-02-19T11:21:44;101773.97;;;10.76;52.77
43824;BME280;29470;53.550;9.926;2023-02-19T11:26:49;101779.66;;;10.72;51.60
43824;BME280;29470;53.550;9.926;2023-02-19T11:31:51;101786.16;;;10.87;51.70
43824;BME280;29470;53.550;9.926;2023-02-19T11:37:11;101786.84;;;10.05;50.95
43824;BME280;29470;53.550;9.926;2023-02-19T11:42:37;101787.44;;;10.22;52.30
43824;BME280;29470;53.550;9.926;2023-02-19T11:47:54;101780.72;;;10.74;52.60
43824;BME280;29470;53.550;9.926;2023-02-19T11:53:12;101798.16;;;10.87;51.52
43824;BME280;29470;53.550;9.926;2023-02-19T11:58:38;101791.44;;;11.10;50.88
43824;BME280;29470;53.550;9.926;2023-02-19T12:09:40;101783.50;;;10.46;51.93
43824;BME280;29470;53.550;9.926;2023-02-19T12:15:01;101791.09;;;10.34;53.00
43824;BME280;29470;53.550;9.926;2023-02-19T12:20:15;101785.84;;;9.84;53.57
43824;BME280;29470;53.550;9.926;2023-02-19T12:25:45;101807.09;;;9.71;55.31
43824;BME280;29470;53.550;9.926;2023-02-19T12:36:26;101815.41;;;10.36;52.91
43824;BME280;29470;53.550;9.926;2023-02-19T12:41:40;101810.88;;;11.04;50.66
43824;BME280;29470;53.550;9.926;2023-02-19T12:46:49;101808.16;;;11.24;49.49
43824;BME280;29470;53.550;9.926;2023-02-19T12:51:57;101807.47;;;10.54;52.06
43824;BME280;29470;53.550;9.926;2023-02-19T12:57:03;101810.22;;;10.86;51.29
43824;BME280;29470;53.550;9.926;2023-02-19T13:02:15;101794.94;;;10.69;51.95
43824;BME280;29470;53.550;9.926;2023-02-19T13:07:24;101787.44;;;10.22;53.23
43824;BME280;29470;53.550;9.926;2023-02-19T13:12:32;101799.44;;;10.61;52.03
43824;BME280;29470;53.550;9.926;2023-02-19T13:17:40;101785.09;;;10.65;49.66
43824;BME280;29470;53.550;9.926;2023-02-19T13:22:50;101791.56;;;10.59;50.68
43824;BME280;29470;53.550;9.926;2023-02-19T13:28:26;101790.16;;;10.34;50.09
43824;BME280;29470;53.550;9.926;2023-02-19T13:33:43;101793.25;;;10.29;50.65
43824;BME280;29470;53.550;9.926;2023-02-19T13:38:48;101798.91;;;10.15;49.25
43824;BME280;29470;53.550;9.926;2023-02-19T13:44:00;101785.38;;;10.28;50.36
43824;BME280;29470;53.550;9.926;2023-02-19T13:54:44;101806.84;;;10.27;51.76
43824;BME280;29470;53.550;9.926;2023-02-19T13:59:48;101809.63;;;9.61;53.33
43824;BME280;29470;53.550;9.926;2023-02-19T14:04:54;101809.44;;;9.49;54.64
43824;BME280;29470;53.550;9.926;2023-02-19T14:09:57;101817.94;;;9.67;53.20
43824;BME280;29470;53.550;9.926;2023-02-19T14:15:40;101816.41;;;9.69;53.19
43824;BME280;29470;53.550;9.926;2023-02-19T14:20:46;101814.97;;;9.72;53.37
43824;BME280;29470;53.550;9.926;2023-02-19T14:25:55;101807.66;;;9.77;53.70
43824;BME280;29470;53.550;9.926;2023-02-19T14:31:02;101809.81;;;9.15;54.80
43824;BME280;29470;53.550;9.926;2023-02-19T14:36:17;101815.44;;;9.58;53.78
43824;BME280;29470;53.550;9.926;2023-02-19T14:41:22;101802.22;;;9.36;55.13
43824;BME280;29470;53.550;9.926;2023-02-19T14:46:29;101786.03;;;9.47;55.62
43824;BME280;29470;53.550;9.926;2023-02-19T14:51:38;101778.16;;;9.26;57.34
43824;BME280;29470;53.550;9.926;2023-02-19T14:56:43;101781.94;;;9.30;57.53
43824;BME280;29470;53.550;9.926;2023-02-19T15:01:53;101775.03;;;9.39;58.02
43824;BME280;29470;53.550;9.926;2023-02-19T15:07:00;101790.34;;;8.99;58.90
43824;BME280;29470;53.550;9.926;2023-02-19T15:12:04;101790.59;;;8.83;60.10
43824;BME280;29470;53.550;9.926;2023-02-19T15:17:12;101781.28;;;8.94;60.23
43824;BME280;29470;53.550;9.926;2023-02-19T15:22:20;101793.41;;;8.95;60.70
43824;BME280;29470;53.550;9.926;2023-02-19T15:27:24;101789.56;;;9.01;60.24
43824;BME280;29470;53.550;9.926;2023-02-19T15:32:27;101784.50;;;9.11;58.39
43824;BME280;29470;53.550;9.926;2023-02-19T15:37:32;101786.47;;;9.13;58.58
43824;BME280;29470;53.550;9.926;2023-02-19T15:42:37;101791.34;;;9.10;58.02
43824;BME280;29470;53.550;9.926;2023-02-19T15:47:42;101790.88;;;8.87;60.30
43824;BME280;29470;53.550;9.926;2023-02-19T15:52:53;101809.66;;;8.94;60.17
43824;BME280;29470;53.550;9.926;2023-02-19T15:58:03;101825.03;;;8.84;61.76
43824;BME280;29470;53.550;9.926;2023-02-19T16:03:14;101813.75;;;8.92;61.20
43824;BME280;29470;53.550;9.926;2023-02-19T16:08:20;101815.69;;;8.76;61.96
43824;BME280;29470;53.550;9.926;2023-02-19T16:13:32;101822.13;;;8.62;63.46
43824;BME280;29470;53.550;9.926;2023-02-19T16:18:36;101814.72;;;8.56;64.31
43824;BME280;29470;53.550;9.926;2023-02-19T16:23:42;101819.34;;;8.32;65.93
43824;BME280;29470;53.550;9.926;2023-02-19T16:28:49;101823.44;;;8.30;65.46
43824;BME280;29470;53.550;9.926;2023-02-19T16:33:52;101830.94;;;7.92;67.16
43824;BME280;29470;53.550;9.926;2023-02-19T16:39:18;101836.50;;;8.23;65.57
43824;BME280;29470;53.550;9.926;2023-02-19T16:44:28;101826.41;;;8.52;65.36
43824;BME280;29470;53.550;9.926;2023-02-19T16:49:32;101831.03;;;8.20;65.44
43824;BME280;29470;53.550;9.926;2023-02-19T16:54:36;101832.56;;;8.09;66.72
43824;BME280;29470;53.550;9.926;2023-02-19T16:59:39;101847.28;;;8.01;67.40
43824;BME280;29470;53.550;9.926;2023-02-19T17:04:42;101828.06;;;7.89;68.44
43824;BME280;29470;53.550;9.926;2023-02-19T17:09:46;101839.09;;;7.96;68.65
43824;BME280;29470;53.550;9.926;2023-02-19T17:14:49;101844.00;;;7.58;70.28
43824;BME280;29470;53.550;9.926;2023-02-19T17:19:52;101839.91;;;7.78;70.71
43824;BME280;29470;53.550;9.926;2023-02-19T17:24:57;101838.97;;;7.60;70.93
43824;BME280;29470;53.550;9.926;2023-02-19T17:30:00;101831.44;;;7.79;70.31
43824;BME280;29470;53.550;9.926;2023-02-19T17:35:04;101833.66;;;7.85;69.08
43824;BME280;29470;53.550;9.926;2023-02-19T17:40:19;101837.31;;;7.87;70.75
43824;BME280;29470;53.550;9.926;2023-02-19T17:45:33;101835.63;;;7.96;70.08
43824;BME280;29470;53.550;9.926;2023-02-19T17:50:36;101833.63;;;8.20;69.64
43824;BME280;29470;53.550;9.926;2023-02-19T17:55:40;101854.22;;;8.20;69.46
43824;BME280;29470;53.550;9.926;2023-02-19T18:00:43;101864.03;;;8.33;69.29
43824;BME280;29470;53.550;9.926;2023-02-19T18:05:46;101864.41;;;8.09;69.50
43824;BME280;29470;53.550;9.926;2023-02-19T18:10:50;101875.34;;;7.72;71.59
43824;BME280;29470;53.550;9.926;2023-02-19T18:15:53;101865.78;;;7.97;70.86
43824;BME280;29470;53.550;9.926;2023-02-19T18:20:56;101876.84;;;7.78;72.00
43824;BME280;29470;53.550;9.926;2023-02-19T18:26:01;101879.09;;;8.19;71.13
43824;BME280;29470;53.550;9.926;2023-02-19T18:31:04;101875.88;;;8.31;70.74
43824;BME280;29470;53.550;9.926;2023-02-19T18:36:09;101879.13;;;7.75;73.12
43824;BME280;29470;53.550;9.926;2023-02-19T18:41:14;101863.56;;;8.37;71.22
43824;BME280;29470;53.550;9.926;2023-02-19T18:46:21;101854.66;;;8.33;72.39
43824;BME280;29470;53.550;9.926;2023-02-19T18:51:24;101841.31;;;8.37;72.87
43824;BME280;29470;53.550;9.926;2023-02-19T18:56:29;101840.28;;;8.18;73.80
43824;BME280;29470;53.550;9.926;2023-02-19T19:01:32;101842.88;;;8.72;72.07
43824;BME280;29470;53.550;9.926;2023-02-19T19:06:35;101839.50;;;8.36;73.54
43824;BME280;29470;53.550;9.926;2023-02-19T19:11:42;101840.66;;;8.58;71.84
43824;BME280;29470;53.550;9.926;2023-02-19T19:16:47;101818.66;;;8.61;72.99
43824;BME280;29470;53.550;9.926;2023-02-19T19:21:50;101833.06;;;8.59;71.59
43824;BME280;29470;53.550;9.926;2023-02-19T19:26:58;101818.69;;;8.35;72.33
43824;BME280;29470;53.550;9.926;2023-02-19T19:32:01;101816.34;;;8.19;72.83
43824;BME280;29470;53.550;9.926;2023-02-19T19:37:04;101824.59;;;7.88;75.65
43824;BME280;29470;53.550;9.926;2023-02-19T19:42:08;101819.91;;;7.58;76.65
43824;BME280;29470;53.550;9.926;2023-02-19T19:47:15;101823.41;;;7.58;78.34
43824;BME280;29470;53.550;9.926;2023-02-19T19:52:20;101823.69;;;7.44;79.12
43824;BME280;29470;53.550;9.926;2023-02-19T19:57:25;101828.94;;;7.10;80.74
43824;BME280;29470;53.550;9.926;2023-02-19T20:02:29;101832.25;;;6.91;83.09
43824;BME280;29470;53.550;9.926;2023-02-19T20:07:32;101838.66;;;7.13;82.07
43824;BME280;29470;53.550;9.926;2023-02-19T20:12:37;101832.81;;;6.80;83.70
43824;BME280;29470;53.550;9.926;2023-02-19T20:17:41;101830.56;;;6.92;83.82
43824;BME280;29470;53.550;9.926;2023-02-19T20:22:44;101806.19;;;6.80;84.73
43824;BME280;29470;53.550;9.926;2023-02-19T20:27:48;101808.44;;;6.76;85.21
43824;BME280;29470;53.550;9.926;2023-02-19T20:32:58;101805.66;;;7.08;84.45
43824;BME280;29470;53.550;9.926;2023-02-19T20:38:01;101803.34;;;6.85;84.37
43824;BME280;29470;53.550;9.926;2023-02-19T20:43:06;101796.75;;;6.62;85.25
43824;BME280;29470;53.550;9.926;2023-02-19T20:48:09;101805.78;;;7.01;83.20
43824;BME280;29470;53.550;9.926;2023-02-19T20:53:11;101793.66;;;7.09;83.34
43824;BME280;29470;53.550;9.926;2023-02-19T20:58:16;101797.88;;;6.82;84.80
43824;BME280;29470;53.550;9.926;2023-02-19T21:03:21;101800.50;;;7.35;82.18
43824;BME280;29470;53.550;9.926;2023-02-19T21:08:24;101795.53;;;7.36;83.35
43824;BME280;29470;53.550;9.926;2023-02-19T21:13:28;101783.72;;;7.21;81.05
43824;BME280;29470;53.550;9.926;2023-02-19T21:18:31;101783.25;;;7.16;83.33
43824;BME280;29470;53.550;9.926;2023-02-19T21:23:34;101792.03;;;7.54;81.71
43824;BME280;29470;53.550;9.926;2023-02-19T21:28:38;101790.53;;;7.64;81.26
43824;BME280;29470;53.550;9.926;2023-02-19T21:33:42;101794.47;;;7.43;83.50
43824;BME280;29470;53.550;9.926;2023-02-19T21:38:45;101785.06;;;7.35;82.36
43824;BME280;29470;53.550;9.926;2023-02-19T21:43:49;101775.34;;;7.76;81.31
43824;BME280;29470;53.550;9.926;2023-02-19T21:48:55;101776.28;;;7.77;78.99
43824;BME280;29470;53.550;9.926;2023-02-19T21:53:58;101767.84;;;8.06;78.18
43824;BME280;29470;53.550;9.926;2023-02-19T21:59:02;101746.59;;;7.72;80.88
43824;BME280;29470;53.550;9.926;2023-02-19T22:04:08;101740.81;;;7.83;79.30
43824;BME280;29470;53.550;9.926;2023-02-19T22:09:11;101728.13;;;7.49;83.05
43824;BME280;29470;53.550;9.926;2023-02-19T22:14:16;101731.91;;;7.71;82.97
43824;BME280;29470;53.550;9.926;2023-02-19T22:19:19;101737.81;;;7.61;81.71
43824;BME280;29470;53.550;9.926;2023-02-19T22:24:21;101726.31;;;7.48;81.93
43824;BME280;29470;53.550;9.926;2023-02-19T22:29:26;101739.66;;;7.35;83.16
43824;BME280;29470;53.550;9.926;2023-02-19T22:34:28;101736.69;;;7.94;81.06
43824;BME280;29470;53.550;9.926;2023-02-19T22:39:31;101740.25;;;7.50;83.70
43824;BME280;29470;53.550;9.926;2023-02-19T22:44:35;101741.47;;;7.45;83.49
43824;BME280;29470;53.550;9.926;2023-02-19T22:49:38;101733.72;;;7.72;83.28
43824;BME280;29470;53.550;9.926;2023-02-19T22:54:44;101743.13;;;7.18;85.65
43824;BME280;29470;53.550;9.926;2023-02-19T22:59:48;101739.19;;;7.57;83.89
43824;BME280;29470;53.550;9.926;2023-02-19T23:04:51;101742.38;;;7.37;83.73
43824;BME280;29470;53.550;9.926;2023-02-19T23:09:54;101726.13;;;7.73;83.07
43824;BME280;29470;53.550;9.926;2023-02-19T23:14:58;101726.44;;;8.13;80.16
43824;BME280;29470;53.550;9.926;2023-02-19T23:20:01;101709.16;;;7.75;81.25
43824;BME280;29470;53.550;9.926;2023-02-19T23:25:05;101697.41;;;7.42;84.16
43824;BME280;29470;53.550;9.926;2023-02-19T23:30:10;101691.34;;;7.50;82.98
43824;BME280;29470;53.550;9.926;2023-02-19T23:35:13;101684.56;;;7.88;82.13
43824;BME280;29470;53.550;9.926;2023-02-19T23:40:16;101677.78;;;7.79;81.62
43824;BME280;29470;53.550;9.926;2023-02-19T23:45:20;101662.75;;;8.21;80.34
43824;BME280;29470;53.550;9.926;2023-02-19T23:50:23;101649.34;;;8.34;79.54
43824;BME280;29470;53.550;9.926;2023-02-19T23:55:26;101649.53;;;8.26;78.56
